createdAt,value
2018-06-01T06:20:10.308Z,94.90
2018-06-01T06:22:36.964Z,95.00
2018-06-01T06:25:04.158Z,96.10
2018-06-01T06:27:43.168Z,95.30
2018-06-01T06:30:22.504Z,96.20
2018-06-01T06:33:01.285Z,93.60
2018-06-01T06:35:40.605Z,92.60
2018-06-01T06:38:19.176Z,92.30
2018-06-01T06:40:57.300Z,92.80
2018-06-01T06:43:37.059Z,93.00
2018-06-01T06:46:18.233Z,94.10
2018-06-01T06:48:58.919Z,93.80
2018-06-01T06:51:37.050Z,92.90
2018-06-01T06:54:05.936Z,93.40
2018-06-01T06:56:43.776Z,93.10
2018-06-01T06:59:23.100Z,93.90
2018-06-01T07:02:02.822Z,93.50
2018-06-01T07:04:41.043Z,91.50
2018-06-01T07:07:19.324Z,92.10
2018-06-01T07:09:59.320Z,93.10
2018-06-01T07:12:37.416Z,92.40
2018-06-01T07:15:04.656Z,92.40
2018-06-01T07:17:31.641Z,91.00
2018-06-01T07:19:57.880Z,91.50
2018-06-01T07:22:24.161Z,91.80
2018-06-01T07:24:50.446Z,91.00
2018-06-01T07:27:16.699Z,89.00
2018-06-01T07:29:42.971Z,88.40
2018-06-01T07:32:09.219Z,87.80
2018-06-01T07:34:36.264Z,89.20
2018-06-01T07:37:02.538Z,89.40
2018-06-01T07:39:28.824Z,90.20
2018-06-01T07:41:55.120Z,90.20
2018-06-01T07:44:21.364Z,89.80
2018-06-01T07:46:47.690Z,88.60
2018-06-01T07:49:13.916Z,87.40
2018-06-01T07:51:40.149Z,86.60
2018-06-01T07:54:06.424Z,85.30
2018-06-01T07:56:32.661Z,85.80
2018-06-01T07:58:59.714Z,86.90
2018-06-01T08:01:26.005Z,86.80
2018-06-01T08:03:52.241Z,86.70
2018-06-01T08:06:19.211Z,86.60
2018-06-01T08:08:45.565Z,84.20
2018-06-01T08:11:11.801Z,87.60
2018-06-01T08:13:38.139Z,88.80
2018-06-01T08:16:04.456Z,85.10
2018-06-01T08:18:30.716Z,86.30
2018-06-01T08:20:57.439Z,85.20
2018-06-01T08:23:23.681Z,85.90
2018-06-01T08:25:49.955Z,87.70
2018-06-01T08:28:16.561Z,84.70
2018-06-01T08:30:43.573Z,88.00
2018-06-01T08:33:10.571Z,83.10
2018-06-01T08:35:36.884Z,83.60
2018-06-01T08:38:03.121Z,81.80
2018-06-01T08:40:30.157Z,83.10
2018-06-01T08:42:57.134Z,80.50
2018-06-01T08:45:23.423Z,80.50
2018-06-01T08:47:49.671Z,81.80
2018-06-01T08:50:15.932Z,81.90
2018-06-01T08:52:42.244Z,84.60
2018-06-01T08:55:08.875Z,83.70
2018-06-01T08:57:35.259Z,82.20
2018-06-01T09:00:01.560Z,79.10
2018-06-01T09:02:28.621Z,77.50
2018-06-01T09:04:55.644Z,78.20
2018-06-01T09:07:21.960Z,75.40
2018-06-01T09:09:48.222Z,74.20
2018-06-01T09:12:14.570Z,76.90
2018-06-01T09:14:40.890Z,74.30
2018-06-01T09:17:07.208Z,73.80
2018-06-01T09:19:33.541Z,72.70
2018-06-01T09:21:59.795Z,72.50
2018-06-01T09:24:27.273Z,69.30
2018-06-01T09:26:53.579Z,70.00
2018-06-01T09:29:19.940Z,70.40
2018-06-01T09:31:46.202Z,73.70
2018-06-01T09:34:13.266Z,72.60
2018-06-01T09:36:40.269Z,70.60
2018-06-01T09:39:06.727Z,71.20
2018-06-01T09:41:34.479Z,69.70
2018-06-01T09:44:00.815Z,68.90
2018-06-01T09:46:27.865Z,71.40
2018-06-01T09:48:54.532Z,69.70
2018-06-01T09:51:20.777Z,68.90
2018-06-01T09:53:47.075Z,66.00
2018-06-01T09:56:13.345Z,67.80
2018-06-01T09:58:39.602Z,67.70
2018-06-01T10:01:09.484Z,68.60
2018-06-01T10:03:35.817Z,64.90
2018-06-01T10:06:02.154Z,67.00
2018-06-01T10:08:28.441Z,64.90
2018-06-01T10:10:55.504Z,66.30
2018-06-01T10:13:22.162Z,63.60
2018-06-01T10:15:48.481Z,62.00
2018-06-01T10:18:15.535Z,60.40
2018-06-01T10:20:42.588Z,58.80
2018-06-01T10:23:09.584Z,57.70
2018-06-01T10:25:35.897Z,57.20
2018-06-01T10:28:02.552Z,58.00
2018-06-01T10:30:28.799Z,57.60
2018-06-01T10:32:55.134Z,57.90
2018-06-01T10:35:21.404Z,57.80
2018-06-01T10:37:47.684Z,57.60
2018-06-01T10:40:13.932Z,56.10
2018-06-01T10:42:40.608Z,56.40
2018-06-01T10:45:06.906Z,56.00
2018-06-01T10:47:33.571Z,58.90
2018-06-01T10:49:59.835Z,55.70
2018-06-01T10:52:26.456Z,54.40
2018-06-01T10:54:52.686Z,54.10
2018-06-01T10:57:18.950Z,55.00
2018-06-01T10:59:45.244Z,55.40
2018-06-01T11:02:11.576Z,54.40
2018-06-01T11:04:37.869Z,54.90
2018-06-01T11:07:04.133Z,53.20
2018-06-01T11:09:31.225Z,56.20
2018-06-01T11:11:57.532Z,57.30
2018-06-01T11:14:23.849Z,54.90
2018-06-01T11:16:50.501Z,55.00
2018-06-01T11:19:17.504Z,55.80
2018-06-01T11:21:43.774Z,54.20
2018-06-01T11:24:10.205Z,54.90
2018-06-01T11:26:36.466Z,53.60
2018-06-01T11:29:03.515Z,54.10
2018-06-01T11:31:30.498Z,54.90
2018-06-01T11:33:56.801Z,54.90
2018-06-01T11:36:24.345Z,51.60
2018-06-01T11:38:50.664Z,51.90
2018-06-01T11:41:17.671Z,51.20
2018-06-01T11:43:44.747Z,52.20
2018-06-01T11:46:11.027Z,52.80
2018-06-01T11:48:37.252Z,57.10
2018-06-01T11:51:03.536Z,56.00
2018-06-01T11:53:29.835Z,59.50
2018-06-01T11:55:56.140Z,52.30
2018-06-01T11:58:22.447Z,52.10
2018-06-01T12:00:48.720Z,53.50
2018-06-01T12:03:15.061Z,54.40
2018-06-01T12:05:41.296Z,53.80
2018-06-01T12:08:07.560Z,53.40
2018-06-01T12:10:33.840Z,58.20
2018-06-01T12:13:00.095Z,50.10
2018-06-01T12:15:26.639Z,53.30
2018-06-01T12:17:52.957Z,48.60
2018-06-01T12:20:19.257Z,54.50
2018-06-01T12:22:46.230Z,53.10
2018-06-01T12:25:13.290Z,52.40
2018-06-01T12:27:39.501Z,54.90
2018-06-01T12:30:06.563Z,53.60
2018-06-01T12:32:33.573Z,50.50
2018-06-01T12:34:59.831Z,51.10
2018-06-01T12:37:26.517Z,50.50
2018-06-01T12:39:54.361Z,51.70
2018-06-01T12:42:20.662Z,51.10
2018-06-01T12:44:47.716Z,52.90
2018-06-01T12:47:13.936Z,50.90
2018-06-01T12:49:40.185Z,54.60
2018-06-01T12:52:06.479Z,51.90
2018-06-01T12:54:32.746Z,50.70
2018-06-01T12:56:59.403Z,49.70
2018-06-01T12:59:25.670Z,49.70
2018-06-01T13:01:51.941Z,49.60
2018-06-01T13:04:18.235Z,51.70
2018-06-01T13:06:44.543Z,48.40
2018-06-01T13:09:10.828Z,49.20
2018-06-01T13:11:37.836Z,50.30
2018-06-01T13:14:04.145Z,52.90
2018-06-01T13:16:30.408Z,46.60
2018-06-01T13:18:56.776Z,44.70
2018-06-01T13:21:23.070Z,44.80
2018-06-01T13:23:49.376Z,45.40
2018-06-01T13:26:16.340Z,51.70
2018-06-01T13:28:42.637Z,52.50
2018-06-01T13:31:08.887Z,55.60
2018-06-01T13:33:35.937Z,55.60
2018-06-01T13:36:02.998Z,51.00
2018-06-01T13:38:30.017Z,50.00
2018-06-01T13:40:56.273Z,50.90
2018-06-01T13:43:23.254Z,51.20
2018-06-01T13:45:50.268Z,49.10
2018-06-01T13:48:16.511Z,46.80
2018-06-01T13:50:42.884Z,48.60
2018-06-01T13:53:09.148Z,43.70
2018-06-01T13:55:35.481Z,41.40
2018-06-01T13:58:01.737Z,40.80
2018-06-01T14:00:28.074Z,42.40
2018-06-01T14:02:54.334Z,38.70
2018-06-01T14:05:20.671Z,39.00
2018-06-01T14:07:47.659Z,40.70
2018-06-01T14:10:13.918Z,37.90
2018-06-01T14:12:40.217Z,44.00
2018-06-01T14:15:07.261Z,45.30
2018-06-01T14:17:34.266Z,43.70
2018-06-01T14:20:01.323Z,38.70
2018-06-01T14:22:27.612Z,41.70
2018-06-01T14:24:55.303Z,42.20
2018-06-01T14:27:22.291Z,41.50
2018-06-01T14:29:48.578Z,39.60
2018-06-01T14:32:15.644Z,40.50
2018-06-01T14:34:41.888Z,39.70
2018-06-01T14:37:08.201Z,38.90
2018-06-01T14:39:35.256Z,39.60
2018-06-01T14:42:02.337Z,39.60
2018-06-01T14:44:28.588Z,38.40
2018-06-01T14:46:54.946Z,38.20
2018-06-01T14:49:21.162Z,36.80
2018-06-01T14:51:48.182Z,37.70
2018-06-01T14:54:14.454Z,39.20
2018-06-01T14:56:41.452Z,39.70
2018-06-01T14:59:08.453Z,43.30
2018-06-01T15:01:34.689Z,43.40
2018-06-01T15:04:01.046Z,44.40
2018-06-01T15:06:27.277Z,41.40
2018-06-01T15:08:53.536Z,39.90
2018-06-01T15:11:19.842Z,41.20
2018-06-01T15:13:46.091Z,42.20
2018-06-01T15:16:13.086Z,39.50
2018-06-01T15:18:40.069Z,43.70
2018-06-01T15:21:06.393Z,41.40
2018-06-01T15:23:32.654Z,39.10
2018-06-01T15:25:58.958Z,40.30
2018-06-01T15:28:25.224Z,39.40
2018-06-01T15:30:51.507Z,39.40
2018-06-01T15:33:18.497Z,40.60
2018-06-01T15:35:44.777Z,40.80
2018-06-01T15:38:11.102Z,39.80
2018-06-01T15:40:37.365Z,40.10
2018-06-01T15:43:04.422Z,42.00
2018-06-01T15:45:31.408Z,43.00
2018-06-01T15:47:58.131Z,41.70
2018-06-01T15:50:25.142Z,42.70
2018-06-01T15:52:51.400Z,43.00
2018-06-01T15:55:17.710Z,41.30
2018-06-01T15:57:44.742Z,42.50
2018-06-01T16:00:10.968Z,43.60
2018-06-01T16:02:37.266Z,42.80
2018-06-01T16:05:03.601Z,42.90
2018-06-01T16:07:29.823Z,45.40
2018-06-01T16:09:56.121Z,47.60
2018-06-01T16:12:22.361Z,43.70
2018-06-01T16:14:48.651Z,45.60
2018-06-01T16:17:14.886Z,47.70
2018-06-01T16:19:41.219Z,44.30
2018-06-01T16:22:07.454Z,43.50
2018-06-01T16:24:33.686Z,46.20
2018-06-01T16:26:59.988Z,47.30
2018-06-01T16:29:26.292Z,44.20
2018-06-01T16:31:52.663Z,45.50
2018-06-01T16:34:18.892Z,45.80
2018-06-01T16:36:45.147Z,47.30
2018-06-01T16:39:11.386Z,47.40
2018-06-01T16:41:37.687Z,48.40
2018-06-01T16:44:03.945Z,48.90
2018-06-01T16:46:30.643Z,48.80
2018-06-01T16:48:57.680Z,50.90
2018-06-01T16:51:23.954Z,51.50
2018-06-01T16:53:50.240Z,52.00
2018-06-01T16:56:16.482Z,52.80
2018-06-01T16:58:42.763Z,54.60
2018-06-01T17:01:09.448Z,55.80
2018-06-01T17:03:35.754Z,52.30
2018-06-01T17:06:03.108Z,52.00
2018-06-01T17:08:30.124Z,53.10
2018-06-01T17:10:56.365Z,53.60
2018-06-01T17:13:23.430Z,54.60
2018-06-01T17:15:50.445Z,56.50
2018-06-01T17:18:16.793Z,56.10
2018-06-01T17:20:43.092Z,55.80
2018-06-01T17:23:09.420Z,55.90
2018-06-01T17:25:35.673Z,55.30
2018-06-01T17:28:02.352Z,56.60
2018-06-01T17:30:28.728Z,57.60
2018-06-01T17:32:55.779Z,59.90
2018-06-01T17:35:22.074Z,60.50
2018-06-01T17:37:48.382Z,62.60
2018-06-01T17:40:14.678Z,62.60
2018-06-01T17:42:41.697Z,64.50
2018-06-01T17:45:08.783Z,65.50
2018-06-01T17:47:35.380Z,64.70
2018-06-01T17:50:02.449Z,64.80
2018-06-01T17:52:28.704Z,63.80
2018-06-01T17:54:55.028Z,62.20
2018-06-01T17:57:21.293Z,62.00
2018-06-01T17:59:48.353Z,63.60
2018-06-01T18:02:14.620Z,63.90
2018-06-01T18:04:40.902Z,65.70
2018-06-01T18:07:07.157Z,64.80
2018-06-01T18:09:34.213Z,61.50
2018-06-01T18:12:01.262Z,66.50
2018-06-01T18:14:28.352Z,71.10
2018-06-01T18:16:54.649Z,73.00
2018-06-01T18:19:21.678Z,76.00
2018-06-01T18:21:48.044Z,76.30
2018-06-01T18:24:15.018Z,77.50
2018-06-01T18:26:41.299Z,77.80
2018-06-01T18:29:07.550Z,75.50
2018-06-01T18:31:34.199Z,78.00
2018-06-01T18:34:00.459Z,79.30
2018-06-01T18:36:26.801Z,81.20
2018-06-01T18:38:53.767Z,84.40
2018-06-01T18:41:20.481Z,86.60
2018-06-01T18:43:47.468Z,88.90
2018-06-01T18:46:13.801Z,90.00
2018-06-01T18:48:40.064Z,90.10
2018-06-01T18:51:06.355Z,90.90
2018-06-01T18:53:33.368Z,91.50
2018-06-01T18:55:59.737Z,91.60
2018-06-01T18:58:26.845Z,91.70
2018-06-01T19:00:53.085Z,91.90
2018-06-01T19:03:20.316Z,91.30
2018-06-01T19:05:46.585Z,90.60
2018-06-01T19:08:12.875Z,90.30
2018-06-01T19:10:39.498Z,89.70
2018-06-01T19:13:06.523Z,88.70
2018-06-01T19:15:32.834Z,89.40
2018-06-01T19:17:59.880Z,89.70
2018-06-01T19:20:26.142Z,88.80
2018-06-01T19:22:53.172Z,89.70
2018-06-01T19:25:19.456Z,89.60
2018-06-01T19:27:47.102Z,90.10
2018-06-01T19:30:13.436Z,90.30
2018-06-01T19:32:39.808Z,90.40
2018-06-01T19:35:06.865Z,90.90
2018-06-01T19:37:33.174Z,90.10
2018-06-01T19:39:59.469Z,90.40
2018-06-01T19:42:25.742Z,90.40
2018-06-01T19:44:52.037Z,90.50
2018-06-01T19:47:18.347Z,90.90
2018-06-01T19:49:45.371Z,91.50
2018-06-01T19:52:11.649Z,90.70
2018-06-01T19:54:38.700Z,91.20
2018-06-01T19:57:05.743Z,91.50
2018-06-01T19:59:32.813Z,91.60
2018-06-01T20:01:59.085Z,91.70
2018-06-01T20:04:25.773Z,91.60
2018-06-01T20:06:52.051Z,91.40
2018-06-01T20:09:18.357Z,91.70
2018-06-01T20:11:45.357Z,92.10
2018-06-01T20:14:11.640Z,91.60
2018-06-01T20:16:38.684Z,91.80
2018-06-01T20:19:04.960Z,91.50
2018-06-01T20:21:31.298Z,91.70
2018-06-01T20:23:57.542Z,91.60
2018-06-01T20:26:23.960Z,92.10
2018-06-01T20:28:51.057Z,92.30
2018-06-01T20:31:17.395Z,92.00
2018-06-01T20:33:43.650Z,92.30
2018-06-01T20:36:09.973Z,92.50
2018-06-01T20:38:37.282Z,92.40
2018-06-01T20:41:03.720Z,92.60
2018-06-01T20:43:31.055Z,93.10
2018-06-01T20:45:57.435Z,92.40
2018-06-01T20:48:23.759Z,92.50
2018-06-01T20:50:50.812Z,93.00
2018-06-01T20:53:18.159Z,93.20
2018-06-01T20:55:44.491Z,92.90
2018-06-01T20:58:11.171Z,93.00
2018-06-01T21:00:37.534Z,92.90
2018-06-01T21:03:03.840Z,93.00
2018-06-01T21:05:30.154Z,93.20
2018-06-01T21:07:57.166Z,93.50
2018-06-01T21:10:23.797Z,93.40
2018-06-01T21:12:50.998Z,93.90
2018-06-01T21:15:17.400Z,93.40
2018-06-01T21:17:43.706Z,93.40
2018-06-01T21:20:10.394Z,93.60
2018-06-01T21:22:36.698Z,93.70
2018-06-01T21:25:03.139Z,93.90
2018-06-01T21:27:29.633Z,93.90
2018-06-01T21:29:56.323Z,93.50
2018-06-01T21:32:22.550Z,93.30
2018-06-01T21:34:49.595Z,93.40
2018-06-01T21:37:17.036Z,93.60
2018-06-01T21:39:43.333Z,93.20
2018-06-01T21:42:09.844Z,93.10
2018-06-01T21:44:36.567Z,93.20
2018-06-01T21:47:02.960Z,93.00
2018-06-01T21:49:29.518Z,92.90
2018-06-01T21:51:55.891Z,92.80
2018-06-01T21:54:22.995Z,93.20
2018-06-01T21:56:49.597Z,92.90
2018-06-01T21:59:16.661Z,93.70
2018-06-01T22:01:44.419Z,93.50
2018-06-01T22:04:13.165Z,93.40
2018-06-01T22:06:39.986Z,93.50
2018-06-01T22:09:07.722Z,94.00
2018-06-01T22:11:34.408Z,93.80
2018-06-01T22:14:01.855Z,93.80
2018-06-01T22:16:28.119Z,94.10
2018-06-01T22:18:55.165Z,94.40
2018-06-01T22:21:21.482Z,94.20
2018-06-01T22:23:50.026Z,93.60
2018-06-01T22:26:17.213Z,93.40
2018-06-01T22:28:44.220Z,93.40
2018-06-01T22:31:10.460Z,93.00
2018-06-01T22:33:36.809Z,93.30
2018-06-01T22:36:03.266Z,93.40
2018-06-01T22:38:29.639Z,93.90
2018-06-01T22:40:56.079Z,94.00
2018-06-01T22:43:22.960Z,94.60
2018-06-01T22:45:49.393Z,94.60
2018-06-01T22:48:15.930Z,94.40
2018-06-01T22:50:42.181Z,94.00
2018-06-01T22:53:08.458Z,94.00
2018-06-01T22:55:35.514Z,94.20
2018-06-01T22:58:02.499Z,94.50
2018-06-01T23:00:44.684Z,94.40
2018-06-01T23:03:10.967Z,94.40
2018-06-01T23:05:37.631Z,94.60
2018-06-01T23:08:04.271Z,94.50
2018-06-01T23:10:30.479Z,94.50
2018-06-01T23:12:57.520Z,94.60
2018-06-01T23:15:23.772Z,94.90
2018-06-01T23:17:50.051Z,94.80
2018-06-01T23:20:17.065Z,94.40
2018-06-01T23:22:43.379Z,94.40
2018-06-01T23:25:09.659Z,93.60
2018-06-01T23:27:35.929Z,93.70
2018-06-01T23:30:02.243Z,94.00
2018-06-01T23:32:28.510Z,93.70
2018-06-01T23:34:54.761Z,93.80
2018-06-01T23:37:20.986Z,94.10
2018-06-01T23:39:47.251Z,93.60
2018-06-01T23:42:13.474Z,93.70
2018-06-01T23:44:39.755Z,93.70
2018-06-01T23:47:05.991Z,94.00
2018-06-01T23:49:32.245Z,94.10
2018-06-01T23:51:58.855Z,94.10
2018-06-01T23:54:25.130Z,94.40
2018-06-01T23:56:51.342Z,94.50
2018-06-01T23:59:17.615Z,94.60
